createdAt,value
2019-06-10T00:00:36.122Z,85.92
2019-06-10T00:01:12.147Z,85.79
2019-06-10T00:01:51.393Z,85.74
2019-06-10T00:02:27.775Z,85.75
2019-06-10T00:03:04.459Z,85.97
2019-06-10T00:03:42.220Z,86.06
2019-06-10T00:04:18.654Z,86.04
2019-06-10T00:04:55.561Z,85.92
2019-06-10T00:05:32.226Z,85.94
2019-06-10T00:06:08.532Z,85.90
2019-06-10T00:06:44.440Z,85.98
2019-06-10T00:07:21.150Z,86.08
2019-06-10T00:07:58.021Z,86.22
2019-06-10T00:08:33.736Z,86.36
2019-06-10T00:09:11.721Z,86.62
2019-06-10T00:09:48.266Z,86.73
2019-06-10T00:10:23.976Z,86.76
2019-06-10T00:11:04.204Z,86.83
2019-06-10T00:11:40.952Z,87.07
2019-06-10T00:12:15.609Z,87.33
2019-06-10T00:12:55.254Z,87.38
2019-06-10T00:13:31.412Z,87.24
2019-06-10T00:14:07.434Z,87.26
2019-06-10T00:14:43.748Z,87.19
2019-06-10T00:15:21.394Z,87.22
2019-06-10T00:15:57.135Z,87.13
2019-06-10T00:16:33.436Z,87.00
2019-06-10T00:17:10.988Z,86.69
2019-06-10T00:17:54.871Z,86.48
2019-06-10T00:18:40.680Z,86.50
2019-06-10T00:19:03.911Z,86.45
2019-06-10T00:19:40.971Z,86.49
2019-06-10T00:20:17.820Z,86.49
2019-06-10T00:20:54.438Z,86.48
2019-06-10T00:21:30.810Z,86.33
2019-06-10T00:22:08.426Z,86.30
2019-06-10T00:22:45.562Z,86.27
2019-06-10T00:23:21.426Z,86.32
2019-06-10T00:23:59.310Z,86.49
2019-06-10T00:24:36.355Z,86.27
2019-06-10T00:25:12.308Z,86.27
2019-06-10T00:25:48.553Z,86.42
2019-06-10T00:26:25.198Z,86.51
2019-06-10T00:27:02.845Z,86.42
2019-06-10T00:27:41.882Z,86.37
2019-06-10T00:28:17.166Z,86.30
2019-06-10T00:28:52.952Z,86.11
2019-06-10T00:29:31.103Z,85.97
2019-06-10T00:30:09.339Z,85.82
2019-06-10T00:30:46.853Z,85.56
2019-06-10T00:31:23.061Z,85.51
2019-06-10T00:32:03.293Z,85.46
2019-06-10T00:32:36.895Z,85.65
2019-06-10T00:33:13.199Z,85.78
2019-06-10T00:33:51.782Z,85.91
2019-06-10T00:34:26.957Z,85.85
2019-06-10T00:35:05.961Z,85.85
2019-06-10T00:35:42.793Z,85.86
2019-06-10T00:36:18.281Z,85.98
2019-06-10T00:36:54.625Z,86.00
2019-06-10T00:37:31.612Z,85.99
2019-06-10T00:38:08.996Z,86.27
2019-06-10T00:38:45.671Z,86.29
2019-06-10T00:39:22.286Z,86.35
2019-06-10T00:39:59.267Z,86.39
2019-06-10T00:40:36.659Z,86.46
2019-06-10T00:41:14.107Z,86.44
2019-06-10T00:41:52.178Z,86.21
2019-06-10T00:42:27.748Z,85.82
2019-06-10T00:43:05.370Z,85.91
2019-06-10T00:43:42.177Z,86.08
2019-06-10T00:44:20.524Z,86.21
2019-06-10T00:44:56.369Z,86.40
2019-06-10T00:45:31.874Z,86.49
2019-06-10T00:46:09.444Z,86.43
2019-06-10T00:46:46.283Z,86.35
2019-06-10T00:47:21.753Z,86.34
2019-06-10T00:48:08.594Z,86.19
2019-06-10T00:48:36.546Z,86.03
2019-06-10T00:49:14.564Z,85.92
2019-06-10T00:49:51.484Z,85.92
2019-06-10T00:50:27.969Z,85.86
2019-06-10T00:51:04.473Z,85.80
2019-06-10T00:51:41.552Z,85.79
2019-06-10T00:52:17.838Z,85.56
2019-06-10T00:52:53.300Z,85.52
2019-06-10T00:53:31.670Z,85.59
2019-06-10T00:54:08.645Z,85.57
2019-06-10T00:54:45.445Z,85.83
2019-06-10T00:55:21.713Z,86.13
2019-06-10T00:55:58.022Z,86.04
2019-06-10T00:56:33.612Z,85.91
2019-06-10T00:57:12.399Z,85.92
2019-06-10T00:57:47.982Z,85.83
2019-06-10T00:58:23.412Z,85.71
2019-06-10T00:59:01.001Z,85.76
2019-06-10T00:59:37.599Z,85.71
2019-06-10T01:00:24.931Z,85.80
2019-06-10T01:00:51.837Z,86.04
2019-06-10T01:01:28.191Z,86.21
2019-06-10T01:02:05.041Z,86.33
2019-06-10T01:02:41.765Z,86.50
2019-06-10T01:03:17.985Z,86.53
2019-06-10T01:03:55.255Z,86.53
2019-06-10T01:04:31.974Z,86.41
2019-06-10T01:05:09.868Z,86.65
2019-06-10T01:05:46.190Z,86.72
2019-06-10T01:06:22.421Z,86.53
2019-06-10T01:07:00.747Z,86.38
2019-06-10T01:07:36.593Z,86.36
2019-06-10T01:08:15.568Z,86.35
2019-06-10T01:08:51.355Z,86.30
2019-06-10T01:09:26.969Z,86.16
2019-06-10T01:10:03.266Z,85.88
2019-06-10T01:10:44.006Z,85.77
2019-06-10T01:11:25.864Z,85.61
2019-06-10T01:11:55.439Z,85.70
2019-06-10T01:12:31.759Z,85.68
2019-06-10T01:13:07.230Z,85.83
2019-06-10T01:13:43.957Z,85.79
2019-06-10T01:14:21.534Z,85.68
2019-06-10T01:14:57.199Z,85.52
2019-06-10T01:15:33.408Z,85.68
2019-06-10T01:16:12.109Z,85.73
2019-06-10T01:16:46.830Z,85.86
2019-06-10T01:17:23.119Z,85.70
2019-06-10T01:18:01.400Z,85.56
2019-06-10T01:18:38.544Z,85.64
2019-06-10T01:19:15.807Z,85.74
2019-06-10T01:19:52.801Z,85.99
2019-06-10T01:20:28.314Z,85.88
2019-06-10T01:21:05.776Z,85.77
2019-06-10T01:21:42.339Z,85.41
2019-06-10T01:22:18.279Z,85.30
2019-06-10T01:22:54.631Z,85.34
2019-06-10T01:23:31.212Z,85.26
2019-06-10T01:24:07.096Z,85.40
2019-06-10T01:24:43.560Z,85.21
2019-06-10T01:25:21.685Z,85.21
2019-06-10T01:25:58.195Z,85.27
2019-06-10T01:26:34.469Z,85.18
2019-06-10T01:27:13.518Z,85.34
2019-06-10T01:27:51.369Z,85.44
2019-06-10T01:28:26.672Z,85.40
2019-06-10T01:29:03.170Z,85.36
2019-06-10T01:29:41.635Z,85.34
2019-06-10T01:30:23.614Z,85.23
2019-06-10T01:30:56.309Z,85.13
2019-06-10T01:31:31.909Z,85.05
2019-06-10T01:32:09.753Z,85.07
2019-06-10T01:32:46.159Z,84.82
2019-06-10T01:33:21.817Z,84.75
2019-06-10T01:34:00.623Z,84.85
2019-06-10T01:34:37.126Z,84.79
2019-06-10T01:35:14.205Z,84.74
2019-06-10T01:35:51.469Z,85.01
2019-06-10T01:36:28.053Z,85.01
2019-06-10T01:37:04.092Z,84.86
2019-06-10T01:37:41.398Z,84.82
2019-06-10T01:38:18.387Z,84.85
2019-06-10T01:38:54.397Z,84.92
2019-06-10T01:39:33.133Z,84.87
2019-06-10T01:40:13.070Z,84.89
2019-06-10T01:40:46.977Z,85.11
2019-06-10T01:41:23.588Z,85.11
2019-06-10T01:42:00.600Z,84.97
2019-06-10T01:42:36.074Z,85.10
2019-06-10T01:43:13.925Z,85.01
2019-06-10T01:43:51.255Z,85.21
2019-06-10T01:44:26.847Z,85.30
2019-06-10T01:45:03.140Z,85.37
2019-06-10T01:45:41.701Z,85.53
2019-06-10T01:46:17.519Z,85.79
2019-06-10T01:46:54.031Z,86.14
2019-06-10T01:47:30.988Z,86.11
2019-06-10T01:48:06.844Z,86.04
2019-06-10T01:48:47.943Z,86.12
2019-06-10T01:49:22.839Z,86.25
2019-06-10T01:50:00.554Z,86.09
2019-06-10T01:50:36.430Z,86.02
2019-06-10T01:51:21.332Z,86.14
2019-06-10T01:51:56.620Z,86.08
2019-06-10T01:52:32.890Z,86.13
2019-06-10T01:53:10.091Z,86.47
2019-06-10T01:53:46.922Z,86.48
2019-06-10T01:54:23.204Z,86.49
2019-06-10T01:55:01.570Z,86.40
2019-06-10T01:55:36.679Z,86.28
2019-06-10T01:56:15.459Z,86.30
2019-06-10T01:56:51.238Z,86.29
2019-06-10T01:57:26.879Z,86.37
2019-06-10T01:58:03.115Z,86.36
2019-06-10T01:58:40.659Z,86.46
2019-06-10T01:59:16.999Z,86.57
2019-06-10T01:59:53.651Z,86.62
2019-06-10T02:00:36.813Z,86.80
2019-06-10T02:01:23.379Z,86.69
2019-06-10T02:02:19.358Z,86.45
2019-06-10T02:02:55.942Z,86.45
2019-06-10T02:03:31.689Z,86.40
2019-06-10T02:04:08.304Z,86.19
2019-06-10T02:04:44.436Z,86.34
2019-06-10T02:05:22.694Z,86.46
2019-06-10T02:05:58.051Z,86.46
2019-06-10T02:06:34.283Z,86.36
2019-06-10T02:07:13.392Z,86.39
2019-06-10T02:07:47.776Z,86.19
2019-06-10T02:08:24.014Z,85.94
2019-06-10T02:09:09.644Z,85.98
2019-06-10T02:09:46.612Z,86.10
2019-06-10T02:10:23.171Z,86.21
2019-06-10T02:11:01.155Z,86.16
2019-06-10T02:11:38.231Z,85.93
2019-06-10T02:12:17.584Z,85.82
2019-06-10T02:12:51.967Z,85.80
2019-06-10T02:13:34.351Z,85.63
2019-06-10T02:14:14.460Z,85.43
2019-06-10T02:14:50.797Z,85.47
2019-06-10T02:15:26.692Z,85.50
2019-06-10T02:16:05.009Z,85.45
2019-06-10T02:16:41.448Z,85.30
2019-06-10T02:17:19.085Z,85.13
2019-06-10T02:17:56.401Z,85.02
2019-06-10T02:18:32.328Z,85.13
2019-06-10T02:19:11.453Z,85.05
2019-06-10T02:19:46.770Z,85.14
2019-06-10T02:20:23.966Z,84.95
2019-06-10T02:21:01.104Z,85.18
2019-06-10T02:21:37.611Z,85.37
2019-06-10T02:22:16.708Z,85.46
2019-06-10T02:22:51.706Z,85.29
2019-06-10T02:23:27.950Z,85.09
2019-06-10T02:24:03.372Z,84.97
2019-06-10T02:24:41.663Z,84.95
2019-06-10T02:25:18.723Z,84.87
2019-06-10T02:25:54.903Z,84.83
2019-06-10T02:26:31.134Z,84.82
2019-06-10T02:27:07.673Z,84.76
2019-06-10T02:27:43.496Z,84.67
2019-06-10T02:28:22.025Z,84.54
2019-06-10T02:29:00.727Z,84.48
2019-06-10T02:29:36.284Z,84.53
2019-06-10T02:30:24.441Z,84.77
2019-06-10T02:30:55.745Z,84.95
2019-06-10T02:31:36.533Z,85.05
2019-06-10T02:32:07.177Z,85.03
2019-06-10T02:32:43.602Z,84.93
2019-06-10T02:33:29.544Z,85.06
2019-06-10T02:33:57.039Z,85.27
2019-06-10T02:34:41.748Z,85.46
2019-06-10T02:35:18.045Z,85.69
2019-06-10T02:35:49.540Z,85.62
2019-06-10T02:36:31.053Z,85.40
2019-06-10T02:37:04.821Z,85.75
2019-06-10T02:37:44.405Z,85.98
2019-06-10T02:38:24.675Z,86.06
2019-06-10T02:38:56.739Z,86.12
2019-06-10T02:39:38.254Z,86.27
2019-06-10T02:40:16.203Z,86.37
2019-06-10T02:41:31.689Z,86.46
2019-06-10T02:42:06.262Z,86.63
2019-06-10T02:42:43.843Z,86.53
2019-06-10T02:43:29.400Z,86.63
2019-06-10T02:43:59.889Z,86.67
2019-06-10T02:44:37.647Z,86.67
2019-06-10T02:45:18.296Z,86.59
2019-06-10T02:45:53.206Z,86.66
2019-06-10T02:46:31.355Z,86.80
2019-06-10T02:47:06.806Z,87.14
2019-06-10T02:47:44.360Z,87.34
2019-06-10T02:48:23.711Z,87.40
2019-06-10T02:49:17.663Z,87.56
2019-06-10T02:49:52.802Z,87.59
2019-06-10T02:50:18.832Z,87.47
2019-06-10T02:51:06.991Z,87.45
2019-06-10T02:51:44.086Z,87.80
2019-06-10T02:52:23.250Z,87.76
2019-06-10T02:52:57.757Z,87.81
2019-06-10T02:53:36.476Z,88.05
2019-06-10T02:54:14.025Z,88.09
2019-06-10T02:54:53.556Z,87.95
2019-06-10T02:55:31.826Z,87.89
2019-06-10T02:56:07.769Z,87.97
2019-06-10T02:56:44.463Z,88.13
2019-06-10T02:57:28.508Z,88.23
2019-06-10T02:57:58.284Z,88.14
2019-06-10T02:58:38.736Z,88.02
2019-06-10T02:59:13.248Z,88.06
2019-06-10T02:59:49.110Z,88.13
2019-06-10T03:00:36.852Z,88.18
2019-06-10T03:01:04.396Z,88.42
2019-06-10T03:01:43.582Z,88.55
2019-06-10T03:02:18.759Z,88.49
2019-06-10T03:02:56.049Z,88.33
2019-06-10T03:03:39.362Z,88.32
2019-06-10T03:04:09.424Z,88.31
2019-06-10T03:04:45.879Z,88.42
2019-06-10T03:05:26.231Z,88.33
2019-06-10T03:05:59.398Z,88.22
2019-06-10T03:06:39.965Z,88.43
2019-06-10T03:07:13.759Z,88.35
2019-06-10T03:07:53.101Z,88.17
2019-06-10T03:08:31.628Z,88.18
2019-06-10T03:09:06.337Z,88.34
2019-06-10T03:09:42.885Z,88.28
2019-06-10T03:10:21.364Z,88.12
2019-06-10T03:10:56.522Z,87.98
2019-06-10T03:11:36.901Z,88.01
2019-06-10T03:12:12.220Z,88.12
2019-06-10T03:12:47.723Z,88.50
2019-06-10T03:13:25.593Z,88.80
2019-06-10T03:14:02.615Z,89.21
2019-06-10T03:14:38.161Z,89.23
2019-06-10T03:15:15.492Z,89.01
2019-06-10T03:15:57.515Z,89.07
2019-06-10T03:17:03.766Z,89.06
2019-06-10T03:17:39.251Z,89.34
2019-06-10T03:18:15.785Z,89.62
2019-06-10T03:18:52.507Z,89.88
2019-06-10T03:19:42.177Z,89.94
2019-06-10T03:20:06.320Z,89.87
2019-06-10T03:20:42.834Z,89.71
2019-06-10T03:21:18.248Z,89.44
2019-06-10T03:21:54.766Z,89.26
2019-06-10T03:22:32.749Z,89.33
2019-06-10T03:23:08.449Z,89.49
2019-06-10T03:23:44.681Z,89.44
2019-06-10T03:24:22.406Z,89.65
2019-06-10T03:24:58.157Z,89.76
2019-06-10T03:25:34.556Z,89.80
2019-06-10T03:26:12.424Z,89.78
2019-06-10T03:26:48.081Z,89.84
2019-06-10T03:27:26.581Z,89.78
2019-06-10T03:28:03.099Z,89.56
2019-06-10T03:28:38.573Z,89.43
2019-06-10T03:29:15.083Z,89.45
2019-06-10T03:29:52.693Z,89.57
2019-06-10T03:30:47.396Z,89.67
2019-06-10T03:31:10.366Z,89.57
2019-06-10T03:31:48.429Z,89.54
2019-06-10T03:32:32.146Z,89.83
2019-06-10T03:33:05.061Z,89.93
2019-06-10T03:33:41.856Z,89.91
2019-06-10T03:34:18.123Z,89.98
2019-06-10T03:34:55.281Z,89.84
2019-06-10T03:35:33.056Z,89.78
2019-06-10T03:36:09.333Z,89.57
2019-06-10T03:36:45.579Z,89.40
2019-06-10T03:37:23.243Z,89.53
2019-06-10T03:37:59.120Z,89.85
2019-06-10T03:38:37.107Z,90.12
2019-06-10T03:39:13.461Z,90.42
2019-06-10T03:39:49.318Z,90.44
2019-06-10T03:40:27.476Z,90.52
2019-06-10T03:41:03.523Z,90.50
2019-06-10T03:41:39.107Z,90.36
2019-06-10T03:42:16.698Z,90.47
2019-06-10T03:42:53.373Z,90.55
2019-06-10T03:43:28.819Z,90.77
2019-06-10T03:44:05.177Z,90.84
2019-06-10T03:44:43.067Z,90.79
2019-06-10T03:45:19.321Z,90.78
2019-06-10T03:45:55.646Z,90.94
2019-06-10T03:46:32.848Z,91.30
2019-06-10T03:47:08.358Z,91.34
2019-06-10T03:47:44.796Z,91.31
2019-06-10T03:48:23.741Z,91.47
2019-06-10T03:48:58.487Z,91.75
2019-06-10T03:49:48.972Z,92.13
2019-06-10T03:50:13.552Z,92.16
2019-06-10T03:50:49.085Z,91.98
2019-06-10T03:51:27.417Z,92.27
2019-06-10T03:52:03.337Z,92.67
2019-06-10T03:52:38.794Z,92.89
2019-06-10T03:53:15.263Z,92.77
2019-06-10T03:53:53.091Z,92.53
2019-06-10T03:54:29.531Z,92.60
2019-06-10T03:55:06.169Z,92.72
2019-06-10T03:55:42.787Z,92.80
2019-06-10T03:56:19.135Z,92.82
2019-06-10T03:56:55.489Z,92.79
2019-06-10T03:57:33.109Z,92.72
2019-06-10T03:58:08.667Z,92.60
2019-06-10T03:58:46.344Z,92.54
2019-06-10T03:59:24.571Z,92.65
2019-06-10T04:00:03.476Z,92.64
2019-06-10T04:00:38.045Z,92.65
2019-06-10T04:01:14.279Z,92.43
2019-06-10T04:01:50.018Z,92.48
2019-06-10T04:02:27.204Z,92.37
2019-06-10T04:03:04.346Z,92.21
2019-06-10T04:03:42.448Z,92.10
2019-06-10T04:04:17.860Z,92.20
2019-06-10T04:04:54.473Z,92.47
2019-06-10T04:05:30.150Z,92.62
2019-06-10T04:06:06.578Z,92.73
2019-06-10T04:06:44.270Z,92.61
2019-06-10T04:07:21.014Z,92.70
2019-06-10T04:07:57.897Z,92.51
2019-06-10T04:08:34.201Z,92.39
2019-06-10T04:09:11.971Z,92.13
2019-06-10T04:09:48.036Z,92.20
2019-06-10T04:10:25.542Z,92.18
2019-06-10T04:11:02.944Z,92.07
2019-06-10T04:11:39.429Z,92.19
2019-06-10T04:12:15.767Z,92.26
2019-06-10T04:12:52.383Z,92.36
2019-06-10T04:13:28.833Z,92.38
2019-06-10T04:14:05.185Z,92.38
2019-06-10T04:14:41.981Z,92.53
2019-06-10T04:15:19.697Z,92.51
2019-06-10T04:15:58.633Z,92.33
2019-06-10T04:16:34.125Z,92.22
2019-06-10T04:17:10.342Z,92.19
2019-06-10T04:17:46.606Z,92.07
2019-06-10T04:18:24.981Z,91.82
2019-06-10T04:19:02.347Z,91.55
2019-06-10T04:19:37.963Z,91.50
2019-06-10T04:20:15.571Z,91.31
2019-06-10T04:20:52.883Z,91.48
2019-06-10T04:21:29.193Z,91.60
2019-06-10T04:22:04.631Z,91.60
2019-06-10T04:22:40.883Z,91.49
2019-06-10T04:23:17.700Z,91.56
2019-06-10T04:23:53.423Z,91.39
2019-06-10T04:24:29.699Z,91.41
2019-06-10T04:25:07.133Z,91.48
2019-06-10T04:25:44.637Z,91.44
2019-06-10T04:26:24.082Z,91.49
2019-06-10T04:26:58.834Z,91.50
2019-06-10T04:27:34.412Z,91.50
2019-06-10T04:28:12.501Z,91.55
2019-06-10T04:28:48.628Z,91.41
2019-06-10T04:29:25.904Z,91.36
2019-06-10T04:30:37.661Z,91.32
2019-06-10T04:31:13.399Z,91.09
2019-06-10T04:31:49.674Z,91.14
2019-06-10T04:32:27.400Z,91.29
2019-06-10T04:33:03.238Z,91.26
2019-06-10T04:33:42.098Z,91.29
2019-06-10T04:34:18.538Z,91.10
2019-06-10T04:34:54.607Z,90.75
2019-06-10T04:35:31.030Z,90.79
2019-06-10T04:36:09.125Z,90.77
2019-06-10T04:36:44.574Z,90.68
2019-06-10T04:37:23.372Z,90.56
2019-06-10T04:37:59.115Z,90.48
2019-06-10T04:38:34.539Z,90.13
2019-06-10T04:39:12.487Z,90.19
2019-06-10T04:39:48.897Z,90.20
2019-06-10T04:40:26.012Z,90.26
2019-06-10T04:41:03.321Z,90.10
2019-06-10T04:41:42.739Z,90.04
2019-06-10T04:42:18.337Z,89.88
2019-06-10T04:42:54.780Z,89.94
2019-06-10T04:43:33.845Z,89.92
2019-06-10T04:44:09.377Z,89.84
2019-06-10T04:44:45.980Z,89.81
2019-06-10T04:45:23.629Z,89.88
2019-06-10T04:46:02.491Z,89.82
2019-06-10T04:46:38.301Z,89.74
2019-06-10T04:47:14.557Z,89.63
2019-06-10T04:47:52.319Z,89.38
2019-06-10T04:48:29.349Z,89.40
2019-06-10T04:49:05.748Z,89.36
2019-06-10T04:49:42.846Z,89.33
2019-06-10T04:50:28.362Z,89.33
2019-06-10T04:50:57.630Z,89.23
2019-06-10T04:51:33.181Z,89.20
2019-06-10T04:52:09.376Z,89.10
2019-06-10T04:52:45.594Z,89.10
2019-06-10T04:53:23.702Z,89.18
2019-06-10T04:53:59.058Z,89.25
2019-06-10T04:54:35.568Z,89.27
2019-06-10T04:55:12.619Z,89.10
2019-06-10T04:55:48.965Z,88.94
2019-06-10T04:56:27.131Z,89.07
2019-06-10T04:57:02.531Z,89.18
2019-06-10T04:57:39.027Z,89.32
2019-06-10T04:58:15.336Z,89.34
2019-06-10T04:58:52.516Z,89.23
2019-06-10T04:59:30.528Z,89.58
2019-06-10T05:00:13.852Z,89.70
2019-06-10T05:00:46.111Z,89.65
2019-06-10T05:01:25.570Z,89.59
2019-06-10T05:02:02.757Z,89.62
2019-06-10T05:02:37.731Z,89.59
2019-06-10T05:03:14.179Z,89.41
2019-06-10T05:03:52.633Z,88.94
2019-06-10T05:04:28.713Z,89.17
2019-06-10T05:05:05.859Z,89.33
2019-06-10T05:05:43.037Z,89.20
2019-06-10T05:06:19.044Z,89.19
2019-06-10T05:06:55.461Z,89.23
2019-06-10T05:07:36.236Z,89.23
2019-06-10T05:08:09.194Z,89.18
2019-06-10T05:08:45.414Z,89.32
2019-06-10T05:09:24.444Z,89.38
2019-06-10T05:09:58.914Z,89.52
2019-06-10T05:10:35.612Z,89.71
2019-06-10T05:11:12.759Z,89.65
2019-06-10T05:11:48.581Z,89.49
2019-06-10T05:12:26.458Z,89.36
2019-06-10T05:13:03.283Z,89.38
2019-06-10T05:13:38.772Z,89.53
2019-06-10T05:14:15.164Z,89.72
2019-06-10T05:14:52.682Z,89.86
2019-06-10T05:15:31.244Z,89.54
2019-06-10T05:16:06.197Z,89.48
2019-06-10T05:16:43.079Z,89.82
2019-06-10T05:17:19.376Z,89.75
2019-06-10T05:17:55.895Z,89.71
2019-06-10T05:18:33.254Z,89.58
2019-06-10T05:19:08.944Z,89.78
2019-06-10T05:19:45.428Z,89.84
2019-06-10T05:20:28.322Z,89.84
2019-06-10T05:20:58.902Z,89.82
2019-06-10T05:21:35.118Z,89.94
2019-06-10T05:22:12.392Z,89.86
2019-06-10T05:22:48.234Z,89.82
2019-06-10T05:23:25.209Z,89.60
2019-06-10T05:24:02.929Z,89.57
2019-06-10T05:24:38.610Z,89.42
2019-06-10T05:25:14.988Z,89.35
2019-06-10T05:25:52.656Z,89.13
2019-06-10T05:26:28.907Z,89.07
2019-06-10T05:27:06.415Z,89.04
2019-06-10T05:27:43.078Z,88.74
2019-06-10T05:28:19.892Z,88.73
2019-06-10T05:28:56.517Z,89.10
2019-06-10T05:29:34.084Z,88.96
2019-06-10T05:30:12.276Z,88.94
2019-06-10T05:30:48.609Z,88.76
2019-06-10T05:31:27.347Z,88.59
2019-06-10T05:32:02.558Z,88.78
2019-06-10T05:32:38.884Z,88.72
2019-06-10T05:33:15.085Z,88.41
2019-06-10T05:33:52.847Z,88.06
2019-06-10T05:34:29.982Z,87.82
2019-06-10T05:35:07.528Z,87.78
2019-06-10T05:35:43.192Z,87.71
2019-06-10T05:36:20.615Z,87.41
2019-06-10T05:36:57.105Z,87.33
2019-06-10T05:37:33.897Z,87.29
2019-06-10T05:38:12.860Z,86.93
2019-06-10T05:38:52.377Z,86.81
2019-06-10T05:39:27.605Z,86.72
2019-06-10T05:40:06.448Z,86.70
2019-06-10T05:40:42.972Z,86.72
2019-06-10T05:41:18.753Z,86.76
2019-06-10T05:41:55.223Z,86.68
2019-06-10T05:42:35.606Z,86.10
2019-06-10T05:43:08.783Z,86.21
2019-06-10T05:43:45.217Z,86.11
2019-06-10T05:44:23.932Z,85.68
2019-06-10T05:44:58.699Z,85.49
2019-06-10T05:45:35.302Z,85.18
2019-06-10T05:46:13.472Z,85.00
2019-06-10T05:46:52.746Z,84.56
2019-06-10T05:47:29.870Z,84.66
2019-06-10T05:48:06.635Z,84.83
2019-06-10T05:48:43.730Z,84.61
2019-06-10T05:49:20.158Z,84.34
2019-06-10T05:49:56.525Z,83.98
2019-06-10T05:50:33.560Z,83.55
2019-06-10T05:51:12.228Z,83.20
2019-06-10T05:51:48.611Z,83.15
2019-06-10T05:52:26.097Z,83.40
2019-06-10T05:53:02.770Z,83.21
2019-06-10T05:53:39.245Z,82.92
2019-06-10T05:54:14.863Z,82.65
2019-06-10T05:54:52.116Z,82.09
2019-06-10T05:55:29.127Z,82.27
2019-06-10T05:56:04.658Z,82.26
2019-06-10T05:56:43.244Z,82.04
2019-06-10T05:57:19.043Z,81.75
2019-06-10T05:57:54.546Z,81.64
2019-06-10T05:58:34.066Z,81.54
2019-06-10T05:59:08.953Z,81.52
2019-06-10T05:59:44.476Z,81.27
2019-06-10T06:00:23.351Z,80.99
2019-06-10T06:00:59.448Z,80.83
2019-06-10T06:01:38.275Z,80.67
2019-06-10T06:02:13.108Z,80.70
2019-06-10T06:02:49.376Z,80.59
2019-06-10T06:03:25.724Z,80.43
2019-06-10T06:04:03.243Z,79.85
2019-06-10T06:04:39.656Z,79.52
2019-06-10T06:05:15.405Z,79.55
2019-06-10T06:05:52.503Z,79.32
2019-06-10T06:06:29.212Z,78.98
2019-06-10T06:07:04.758Z,79.00
2019-06-10T06:07:42.360Z,78.77
2019-06-10T06:08:18.825Z,78.61
2019-06-10T06:08:54.421Z,78.53
2019-06-10T06:09:33.497Z,78.57
2019-06-10T06:10:09.118Z,78.53
2019-06-10T06:10:44.591Z,78.45
2019-06-10T06:11:22.950Z,78.21
2019-06-10T06:11:58.773Z,77.86
2019-06-10T06:12:35.711Z,77.70
2019-06-10T06:13:12.663Z,77.79
2019-06-10T06:13:49.092Z,77.55
2019-06-10T06:14:25.460Z,77.65
2019-06-10T06:15:02.337Z,77.44
2019-06-10T06:15:38.764Z,77.29
2019-06-10T06:16:14.430Z,77.42
2019-06-10T06:16:53.202Z,77.68
2019-06-10T06:17:29.836Z,77.64
2019-06-10T06:18:10.177Z,77.21
2019-06-10T06:18:43.756Z,76.79
2019-06-10T06:19:18.381Z,76.67
2019-06-10T06:19:56.211Z,76.90
2019-06-10T06:20:35.757Z,77.28
2019-06-10T06:21:22.394Z,77.48
2019-06-10T06:21:48.420Z,77.20
2019-06-10T06:22:25.356Z,77.01
2019-06-10T06:23:02.746Z,77.13
2019-06-10T06:23:39.850Z,77.20
2019-06-10T06:24:18.323Z,77.43
2019-06-10T06:24:55.019Z,77.54
2019-06-10T06:25:37.218Z,77.61
2019-06-10T06:26:09.433Z,77.49
2019-06-10T06:26:45.767Z,77.31
2019-06-10T06:27:22.555Z,76.90
2019-06-10T06:27:59.117Z,77.06
2019-06-10T06:28:36.112Z,77.24
2019-06-10T06:29:12.990Z,77.10
2019-06-10T06:29:49.405Z,77.58
2019-06-10T06:30:28.068Z,77.51
2019-06-10T06:31:03.755Z,77.63
2019-06-10T06:31:42.727Z,77.82
2019-06-10T06:32:18.613Z,77.84
2019-06-10T06:32:54.144Z,78.04
2019-06-10T06:33:34.780Z,78.06
2019-06-10T06:34:08.298Z,77.84
2019-06-10T06:34:43.785Z,77.93
2019-06-10T06:35:22.607Z,78.23
2019-06-10T06:35:58.281Z,78.42
2019-06-10T06:36:36.330Z,78.25
2019-06-10T06:37:12.733Z,78.09
2019-06-10T06:37:49.327Z,78.10
2019-06-10T06:38:24.813Z,78.29
2019-06-10T06:39:02.320Z,78.22
2019-06-10T06:39:39.113Z,78.42
2019-06-10T06:40:15.453Z,78.51
2019-06-10T06:40:53.741Z,78.93
2019-06-10T06:41:29.693Z,79.37
2019-06-10T06:42:05.821Z,79.41
2019-06-10T06:42:43.283Z,79.25
2019-06-10T06:43:22.081Z,79.64
2019-06-10T06:43:57.013Z,79.68
2019-06-10T06:44:36.093Z,79.69
2019-06-10T06:45:12.291Z,80.00
2019-06-10T06:45:47.762Z,80.09
2019-06-10T06:46:24.111Z,80.09
2019-06-10T06:47:02.561Z,80.14
2019-06-10T06:47:39.015Z,80.05
2019-06-10T06:48:15.473Z,80.31
2019-06-10T06:48:53.271Z,79.87
2019-06-10T06:49:30.460Z,79.70
2019-06-10T06:50:07.686Z,79.87
2019-06-10T06:51:00.324Z,79.77
2019-06-10T06:51:35.995Z,79.26
2019-06-10T06:51:59.541Z,79.25
2019-06-10T06:53:10.131Z,79.53
2019-06-10T06:53:25.831Z,79.54
2019-06-10T06:53:56.130Z,79.53
2019-06-10T06:54:33.069Z,79.22
2019-06-10T06:55:08.894Z,79.32
2019-06-10T06:55:45.498Z,78.89
2019-06-10T06:56:23.997Z,78.29
2019-06-10T06:56:59.517Z,78.30
2019-06-10T06:57:37.214Z,78.39
2019-06-10T06:58:13.713Z,78.89
2019-06-10T06:58:49.242Z,79.18
2019-06-10T06:59:25.491Z,79.25
2019-06-10T07:00:22.805Z,79.38
2019-06-10T07:00:59.335Z,79.32
2019-06-10T07:01:16.986Z,79.06
2019-06-10T07:01:53.275Z,78.93
2019-06-10T07:02:29.575Z,78.74
2019-06-10T07:03:06.764Z,78.93
2019-06-10T07:03:44.998Z,79.11
2019-06-10T07:04:20.470Z,79.19
2019-06-10T07:04:56.824Z,79.06
2019-06-10T07:05:35.664Z,78.71
2019-06-10T07:06:13.869Z,78.73
2019-06-10T07:06:55.421Z,79.12
2019-06-10T07:07:32.815Z,79.23
2019-06-10T07:08:07.962Z,78.98
2019-06-10T07:09:00.372Z,79.01
2019-06-10T07:09:25.022Z,79.29
2019-06-10T07:10:03.382Z,79.29
2019-06-10T07:10:43.398Z,79.03
2019-06-10T07:11:22.261Z,79.28
2019-06-10T07:12:02.529Z,79.07
2019-06-10T07:12:39.709Z,78.98
2019-06-10T07:13:16.357Z,79.06
2019-06-10T07:13:53.628Z,79.28
2019-06-10T07:14:36.826Z,79.19
2019-06-10T07:15:14.744Z,78.98
2019-06-10T07:15:50.276Z,78.87
2019-06-10T07:16:26.695Z,79.22
2019-06-10T07:17:03.923Z,79.16
2019-06-10T07:17:41.612Z,79.16
2019-06-10T07:18:17.623Z,79.22
2019-06-10T07:18:54.289Z,79.45
2019-06-10T07:19:29.852Z,79.38
2019-06-10T07:20:06.906Z,79.29
2019-06-10T07:20:45.642Z,79.58
2019-06-10T07:21:22.763Z,79.93
2019-06-10T07:22:09.469Z,79.73
2019-06-10T07:22:40.067Z,79.51
2019-06-10T07:23:14.435Z,79.51
2019-06-10T07:23:52.904Z,79.41
2019-06-10T07:24:29.153Z,79.38
2019-06-10T07:25:06.676Z,79.28
2019-06-10T07:25:47.127Z,79.30
2019-06-10T07:26:22.193Z,79.35
2019-06-10T07:26:57.783Z,79.67
2019-06-10T07:27:35.848Z,79.46
2019-06-10T07:28:12.551Z,78.99
2019-06-10T07:28:48.216Z,78.91
2019-06-10T07:29:24.513Z,79.38
2019-06-10T07:30:04.746Z,79.51
2019-06-10T07:30:42.356Z,79.48
2019-06-10T07:31:23.805Z,78.93
2019-06-10T07:31:54.184Z,78.81
2019-06-10T07:32:29.577Z,78.47
2019-06-10T07:33:05.840Z,78.10
2019-06-10T07:33:45.836Z,77.79
2019-06-10T07:34:22.124Z,77.36
2019-06-10T07:34:57.638Z,77.90
2019-06-10T07:35:34.585Z,78.03
2019-06-10T07:36:13.112Z,77.71
2019-06-10T07:36:49.273Z,77.00
2019-06-10T07:37:25.678Z,76.84
2019-06-10T07:38:03.058Z,77.26
2019-06-10T07:38:41.781Z,77.55
2019-06-10T07:39:17.556Z,77.65
2019-06-10T07:39:53.010Z,78.06
2019-06-10T07:40:29.829Z,77.90
2019-06-10T07:41:06.464Z,77.64
2019-06-10T07:41:47.332Z,77.08
2019-06-10T07:42:22.647Z,76.81
2019-06-10T07:42:58.922Z,76.98
2019-06-10T07:43:38.264Z,76.80
2019-06-10T07:44:12.595Z,76.80
2019-06-10T07:44:49.398Z,76.88
2019-06-10T07:45:24.973Z,76.64
2019-06-10T07:46:03.333Z,76.49
2019-06-10T07:46:39.392Z,76.40
2019-06-10T07:47:15.088Z,76.32
2019-06-10T07:47:52.317Z,75.72
2019-06-10T07:48:28.671Z,75.52
2019-06-10T07:49:04.331Z,75.23
2019-06-10T07:49:41.865Z,75.34
2019-06-10T07:50:18.819Z,75.16
2019-06-10T07:50:54.266Z,75.35
2019-06-10T07:51:32.917Z,75.09
2019-06-10T07:52:15.843Z,75.00
2019-06-10T07:52:46.937Z,74.75
2019-06-10T07:53:23.800Z,74.88
2019-06-10T07:54:00.076Z,75.06
2019-06-10T07:54:36.294Z,74.52
2019-06-10T07:55:14.654Z,74.39
2019-06-10T07:55:53.390Z,74.59
2019-06-10T07:56:31.720Z,74.63
2019-06-10T07:57:06.397Z,74.68
2019-06-10T07:57:44.393Z,74.49
2019-06-10T07:58:22.317Z,74.72
2019-06-10T07:58:58.492Z,74.74